sensor_id;sensor_type;location;lat;lon;timestamp;P1;durP1;ratioP1;P2;durP2;ratioP2
57291;SDS011;43144;50.972;18.220;2022-09-03T00:02:18;3.60;;;1.70;;
57291;SDS011;43144;50.972;18.220;2022-09-03T00:04:52;2.50;;;1.50;;
57291;SDS011;43144;50.972;18.220;2022-09-03T00:07:25;5.30;;;1.70;;
57291;SDS011;43144;50.972;18.220;2022-09-03T00:09:57;2.70;;;1.70;;
57291;SDS011;43144;50.972;18.220;2022-09-03T00:12:28;3.10;;;1.50;;
57291;SDS011;43144;50.972;18.220;2022-09-03T00:14:59;3.00;;;1.70;;
57291;SDS011;43144;50.972;18.220;2022-09-03T00:17:33;4.10;;;1.80;;
57291;SDS011;43144;50.972;18.220;2022-09-03T00:20:05;4.10;;;1.80;;
57291;SDS011;43144;50.972;18.220;2022-09-03T00:22:37;2.20;;;1.70;;
57291;SDS011;43144;50.972;18.220;2022-09-03T00:25:08;3.90;;;1.60;;
57291;SDS011;43144;50.972;18.220;2022-09-03T00:27:39;2.00;;;1.40;;
57291;SDS011;43144;50.972;18.220;2022-09-03T00:30:09;2.50;;;1.70;;
57291;SDS011;43144;50.972;18.220;2022-09-03T00:32:40;2.20;;;1.90;;
57291;SDS011;43144;50.972;18.220;2022-09-03T00:35:13;3.00;;;1.80;;
57291;SDS011;43144;50.972;18.220;2022-09-03T00:37:43;3.50;;;2.10;;
57291;SDS011;43144;50.972;18.220;2022-09-03T00:40:13;3.50;;;1.80;;
57291;SDS011;43144;50.972;18.220;2022-09-03T00:42:50;4.90;;;1.80;;
57291;SDS011;43144;50.972;18.220;2022-09-03T00:45:26;4.60;;;2.00;;
57291;SDS011;43144;50.972;18.220;2022-09-03T00:48:03;3.80;;;1.70;;
57291;SDS011;43144;50.972;18.220;2022-09-03T00:50:40;2.20;;;1.70;;
57291;SDS011;43144;50.972;18.220;2022-09-03T00:53:19;2.60;;;2.10;;
57291;SDS011;43144;50.972;18.220;2022-09-03T00:55:56;5.10;;;2.30;;
57291;SDS011;43144;50.972;18.220;2022-09-03T00:58:31;3.70;;;1.90;;
57291;SDS011;43144;50.972;18.220;2022-09-03T01:01:15;2.20;;;1.60;;
57291;SDS011;43144;50.972;18.220;2022-09-03T01:03:49;1.90;;;1.60;;
57291;SDS011;43144;50.972;18.220;2022-09-03T01:06:23;4.70;;;2.00;;
57291;SDS011;43144;50.972;18.220;2022-09-03T01:08:59;3.30;;;2.20;;
57291;SDS011;43144;50.972;18.220;2022-09-03T01:11:36;3.90;;;2.40;;
57291;SDS011;43144;50.972;18.220;2022-09-03T01:14:10;2.70;;;2.10;;
57291;SDS011;43144;50.972;18.220;2022-09-03T01:16:43;10.50;;;2.40;;
57291;SDS011;43144;50.972;18.220;2022-09-03T01:19:20;3.60;;;2.10;;
57291;SDS011;43144;50.972;18.220;2022-09-03T01:22:07;3.00;;;1.90;;
57291;SDS011;43144;50.972;18.220;2022-09-03T01:24:48;5.00;;;1.90;;
57291;SDS011;43144;50.972;18.220;2022-09-03T01:27:29;3.70;;;2.00;;
57291;SDS011;43144;50.972;18.220;2022-09-03T01:30:03;2.50;;;1.70;;
57291;SDS011;43144;50.972;18.220;2022-09-03T01:32:35;4.10;;;1.90;;
57291;SDS011;43144;50.972;18.220;2022-09-03T01:35:10;6.60;;;1.80;;
57291;SDS011;43144;50.972;18.220;2022-09-03T01:37:46;2.90;;;1.90;;
57291;SDS011;43144;50.972;18.220;2022-09-03T01:40:24;2.70;;;2.30;;
57291;SDS011;43144;50.972;18.220;2022-09-03T01:45:30;3.70;;;1.90;;
57291;SDS011;43144;50.972;18.220;2022-09-03T01:48:06;4.70;;;2.00;;
57291;SDS011;43144;50.972;18.220;2022-09-03T01:50:41;3.80;;;2.30;;
57291;SDS011;43144;50.972;18.220;2022-09-03T01:53:15;4.00;;;2.30;;
57291;SDS011;43144;50.972;18.220;2022-09-03T01:55:55;3.50;;;2.40;;
57291;SDS011;43144;50.972;18.220;2022-09-03T01:58:34;3.40;;;2.00;;
57291;SDS011;43144;50.972;18.220;2022-09-03T02:01:09;2.80;;;2.20;;
57291;SDS011;43144;50.972;18.220;2022-09-03T02:03:41;3.20;;;1.90;;
57291;SDS011;43144;50.972;18.220;2022-09-03T02:06:11;10.80;;;2.60;;
57291;SDS011;43144;50.972;18.220;2022-09-03T02:08:39;3.60;;;2.00;;
57291;SDS011;43144;50.972;18.220;2022-09-03T02:11:08;2.60;;;2.00;;
57291;SDS011;43144;50.972;18.220;2022-09-03T02:13:38;4.90;;;2.30;;
57291;SDS011;43144;50.972;18.220;2022-09-03T02:16:11;2.60;;;2.00;;
57291;SDS011;43144;50.972;18.220;2022-09-03T02:18:41;2.70;;;2.20;;
57291;SDS011;43144;50.972;18.220;2022-09-03T02:21:11;2.50;;;2.00;;
57291;SDS011;43144;50.972;18.220;2022-09-03T02:23:41;4.20;;;2.10;;
57291;SDS011;43144;50.972;18.220;2022-09-03T02:26:10;2.20;;;1.90;;
57291;SDS011;43144;50.972;18.220;2022-09-03T02:28:39;5.90;;;2.10;;
57291;SDS011;43144;50.972;18.220;2022-09-03T02:31:07;4.70;;;2.00;;
57291;SDS011;43144;50.972;18.220;2022-09-03T02:33:36;3.60;;;2.20;;
57291;SDS011;43144;50.972;18.220;2022-09-03T02:36:07;4.70;;;2.00;;
57291;SDS011;43144;50.972;18.220;2022-09-03T02:38:36;3.20;;;2.10;;
57291;SDS011;43144;50.972;18.220;2022-09-03T02:41:06;2.10;;;1.80;;
57291;SDS011;43144;50.972;18.220;2022-09-03T02:43:35;3.00;;;2.00;;
57291;SDS011;43144;50.972;18.220;2022-09-03T02:46:07;5.40;;;2.00;;
57291;SDS011;43144;50.972;18.220;2022-09-03T02:48:38;3.40;;;2.00;;
57291;SDS011;43144;50.972;18.220;2022-09-03T02:51:07;4.40;;;2.00;;
57291;SDS011;43144;50.972;18.220;2022-09-03T02:53:35;2.40;;;1.80;;
57291;SDS011;43144;50.972;18.220;2022-09-03T02:56:03;4.00;;;1.80;;
57291;SDS011;43144;50.972;18.220;2022-09-03T02:58:31;4.20;;;1.60;;
57291;SDS011;43144;50.972;18.220;2022-09-03T03:01:00;3.90;;;1.80;;
57291;SDS011;43144;50.972;18.220;2022-09-03T03:03:28;2.20;;;1.90;;
57291;SDS011;43144;50.972;18.220;2022-09-03T03:05:57;3.20;;;1.80;;
57291;SDS011;43144;50.972;18.220;2022-09-03T03:08:26;4.20;;;1.80;;
57291;SDS011;43144;50.972;18.220;2022-09-03T03:10:55;3.70;;;1.80;;
57291;SDS011;43144;50.972;18.220;2022-09-03T03:13:24;4.90;;;1.90;;
57291;SDS011;43144;50.972;18.220;2022-09-03T03:15:52;3.30;;;1.90;;
57291;SDS011;43144;50.972;18.220;2022-09-03T03:18:23;3.90;;;2.00;;
57291;SDS011;43144;50.972;18.220;2022-09-03T03:20:51;2.70;;;2.00;;
57291;SDS011;43144;50.972;18.220;2022-09-03T03:23:20;4.30;;;2.10;;
57291;SDS011;43144;50.972;18.220;2022-09-03T03:25:48;4.10;;;1.90;;
57291;SDS011;43144;50.972;18.220;2022-09-03T03:28:17;6.10;;;1.80;;
57291;SDS011;43144;50.972;18.220;2022-09-03T03:30:45;2.50;;;2.00;;
57291;SDS011;43144;50.972;18.220;2022-09-03T03:33:13;3.20;;;2.00;;
57291;SDS011;43144;50.972;18.220;2022-09-03T03:35:41;5.30;;;2.10;;
57291;SDS011;43144;50.972;18.220;2022-09-03T03:38:09;3.00;;;2.00;;
57291;SDS011;43144;50.972;18.220;2022-09-03T03:40:38;4.30;;;2.30;;
57291;SDS011;43144;50.972;18.220;2022-09-03T03:43:06;7.30;;;2.40;;
57291;SDS011;43144;50.972;18.220;2022-09-03T03:45:34;4.00;;;2.10;;
57291;SDS011;43144;50.972;18.220;2022-09-03T03:48:02;3.30;;;2.10;;
57291;SDS011;43144;50.972;18.220;2022-09-03T03:50:31;3.20;;;2.00;;
57291;SDS011;43144;50.972;18.220;2022-09-03T03:52:59;6.30;;;2.30;;
57291;SDS011;43144;50.972;18.220;2022-09-03T03:55:27;4.40;;;2.40;;
57291;SDS011;43144;50.972;18.220;2022-09-03T03:57:57;4.50;;;2.40;;
57291;SDS011;43144;50.972;18.220;2022-09-03T04:00:25;6.60;;;2.40;;
57291;SDS011;43144;50.972;18.220;2022-09-03T04:02:53;3.80;;;2.30;;
57291;SDS011;43144;50.972;18.220;2022-09-03T04:05:22;7.00;;;2.60;;
57291;SDS011;43144;50.972;18.220;2022-09-03T04:07:50;4.20;;;2.30;;
57291;SDS011;43144;50.972;18.220;2022-09-03T04:10:18;4.10;;;2.40;;
57291;SDS011;43144;50.972;18.220;2022-09-03T04:12:47;5.50;;;2.40;;
57291;SDS011;43144;50.972;18.220;2022-09-03T04:15:15;3.70;;;2.00;;
57291;SDS011;43144;50.972;18.220;2022-09-03T04:17:43;4.80;;;2.70;;
57291;SDS011;43144;50.972;18.220;2022-09-03T04:20:12;4.30;;;2.60;;
57291;SDS011;43144;50.972;18.220;2022-09-03T04:22:40;3.00;;;2.70;;
57291;SDS011;43144;50.972;18.220;2022-09-03T04:25:08;6.70;;;2.80;;
57291;SDS011;43144;50.972;18.220;2022-09-03T04:27:37;5.60;;;2.30;;
57291;SDS011;43144;50.972;18.220;2022-09-03T04:30:05;4.70;;;2.30;;
57291;SDS011;43144;50.972;18.220;2022-09-03T04:32:34;5.00;;;2.40;;
57291;SDS011;43144;50.972;18.220;2022-09-03T04:35:03;9.00;;;2.80;;
57291;SDS011;43144;50.972;18.220;2022-09-03T04:37:32;9.60;;;2.80;;
57291;SDS011;43144;50.972;18.220;2022-09-03T04:40:00;10.00;;;2.50;;
57291;SDS011;43144;50.972;18.220;2022-09-03T04:42:28;3.50;;;2.50;;
57291;SDS011;43144;50.972;18.220;2022-09-03T04:44:56;6.00;;;2.40;;
57291;SDS011;43144;50.972;18.220;2022-09-03T04:47:24;5.20;;;2.80;;
57291;SDS011;43144;50.972;18.220;2022-09-03T04:49:53;5.30;;;3.00;;
57291;SDS011;43144;50.972;18.220;2022-09-03T04:52:21;5.00;;;2.30;;
57291;SDS011;43144;50.972;18.220;2022-09-03T04:54:50;3.80;;;2.40;;
57291;SDS011;43144;50.972;18.220;2022-09-03T04:57:18;6.80;;;2.50;;
57291;SDS011;43144;50.972;18.220;2022-09-03T04:59:46;3.40;;;2.50;;
57291;SDS011;43144;50.972;18.220;2022-09-03T05:02:17;6.20;;;2.80;;
57291;SDS011;43144;50.972;18.220;2022-09-03T05:04:45;5.80;;;2.60;;
57291;SDS011;43144;50.972;18.220;2022-09-03T05:07:14;6.90;;;2.80;;
57291;SDS011;43144;50.972;18.220;2022-09-03T05:09:42;6.20;;;2.60;;
57291;SDS011;43144;50.972;18.220;2022-09-03T05:12:11;4.80;;;2.60;;
57291;SDS011;43144;50.972;18.220;2022-09-03T05:14:39;6.40;;;3.30;;
57291;SDS011;43144;50.972;18.220;2022-09-03T05:17:07;6.50;;;2.80;;
57291;SDS011;43144;50.972;18.220;2022-09-03T05:19:35;4.40;;;2.90;;
57291;SDS011;43144;50.972;18.220;2022-09-03T05:22:03;5.60;;;2.30;;
57291;SDS011;43144;50.972;18.220;2022-09-03T05:24:32;9.30;;;3.00;;
57291;SDS011;43144;50.972;18.220;2022-09-03T05:27:00;5.70;;;2.70;;
57291;SDS011;43144;50.972;18.220;2022-09-03T05:29:28;5.00;;;2.70;;
57291;SDS011;43144;50.972;18.220;2022-09-03T05:31:56;5.40;;;3.10;;
57291;SDS011;43144;50.972;18.220;2022-09-03T05:34:24;6.50;;;3.30;;
57291;SDS011;43144;50.972;18.220;2022-09-03T05:36:52;7.00;;;2.80;;
57291;SDS011;43144;50.972;18.220;2022-09-03T05:39:21;5.90;;;3.30;;
57291;SDS011;43144;50.972;18.220;2022-09-03T05:41:49;4.00;;;2.50;;
57291;SDS011;43144;50.972;18.220;2022-09-03T05:44:17;5.00;;;3.20;;
57291;SDS011;43144;50.972;18.220;2022-09-03T05:46:45;6.60;;;3.30;;
57291;SDS011;43144;50.972;18.220;2022-09-03T05:49:14;4.80;;;3.20;;
57291;SDS011;43144;50.972;18.220;2022-09-03T05:51:42;6.90;;;3.20;;
57291;SDS011;43144;50.972;18.220;2022-09-03T05:54:10;6.60;;;3.20;;
57291;SDS011;43144;50.972;18.220;2022-09-03T05:56:38;6.20;;;3.60;;
57291;SDS011;43144;50.972;18.220;2022-09-03T05:59:07;4.60;;;3.20;;
57291;SDS011;43144;50.972;18.220;2022-09-03T06:01:37;4.40;;;3.50;;
57291;SDS011;43144;50.972;18.220;2022-09-03T06:04:06;5.80;;;3.70;;
57291;SDS011;43144;50.972;18.220;2022-09-03T06:06:37;6.90;;;3.70;;
57291;SDS011;43144;50.972;18.220;2022-09-03T06:09:07;4.90;;;3.30;;
57291;SDS011;43144;50.972;18.220;2022-09-03T06:11:37;6.70;;;3.70;;
57291;SDS011;43144;50.972;18.220;2022-09-03T06:14:06;5.00;;;3.40;;
57291;SDS011;43144;50.972;18.220;2022-09-03T06:16:36;4.90;;;3.30;;
57291;SDS011;43144;50.972;18.220;2022-09-03T06:19:06;4.20;;;3.30;;
57291;SDS011;43144;50.972;18.220;2022-09-03T06:21:35;4.60;;;3.50;;
57291;SDS011;43144;50.972;18.220;2022-09-03T06:24:04;6.70;;;3.50;;
57291;SDS011;43144;50.972;18.220;2022-09-03T06:26:33;7.50;;;3.40;;
57291;SDS011;43144;50.972;18.220;2022-09-03T06:29:01;4.00;;;3.30;;
57291;SDS011;43144;50.972;18.220;2022-09-03T06:31:29;4.20;;;3.50;;
57291;SDS011;43144;50.972;18.220;2022-09-03T06:33:57;5.70;;;3.20;;
57291;SDS011;43144;50.972;18.220;2022-09-03T06:36:26;8.20;;;3.50;;
57291;SDS011;43144;50.972;18.220;2022-09-03T06:38:54;3.70;;;3.30;;
57291;SDS011;43144;50.972;18.220;2022-09-03T06:41:24;5.30;;;3.50;;
57291;SDS011;43144;50.972;18.220;2022-09-03T06:43:54;5.20;;;3.80;;
57291;SDS011;43144;50.972;18.220;2022-09-03T06:46:24;6.20;;;3.40;;
57291;SDS011;43144;50.972;18.220;2022-09-03T06:48:52;5.50;;;3.30;;
57291;SDS011;43144;50.972;18.220;2022-09-03T06:51:21;5.50;;;3.50;;
57291;SDS011;43144;50.972;18.220;2022-09-03T06:53:51;6.40;;;3.30;;
57291;SDS011;43144;50.972;18.220;2022-09-03T06:56:24;5.50;;;3.20;;
57291;SDS011;43144;50.972;18.220;2022-09-03T06:58:53;4.90;;;3.50;;
57291;SDS011;43144;50.972;18.220;2022-09-03T07:01:23;5.30;;;3.50;;
57291;SDS011;43144;50.972;18.220;2022-09-03T07:03:53;4.70;;;3.70;;
57291;SDS011;43144;50.972;18.220;2022-09-03T07:06:22;5.00;;;3.80;;
57291;SDS011;43144;50.972;18.220;2022-09-03T07:08:51;6.70;;;3.80;;
57291;SDS011;43144;50.972;18.220;2022-09-03T07:11:20;8.10;;;3.60;;
57291;SDS011;43144;50.972;18.220;2022-09-03T07:13:50;5.90;;;3.50;;
57291;SDS011;43144;50.972;18.220;2022-09-03T07:16:20;4.30;;;3.70;;
57291;SDS011;43144;50.972;18.220;2022-09-03T07:18:49;4.20;;;3.80;;
57291;SDS011;43144;50.972;18.220;2022-09-03T07:21:18;5.00;;;3.50;;
57291;SDS011;43144;50.972;18.220;2022-09-03T07:23:47;6.30;;;3.70;;
57291;SDS011;43144;50.972;18.220;2022-09-03T07:26:16;5.20;;;3.50;;
57291;SDS011;43144;50.972;18.220;2022-09-03T07:28:46;4.70;;;3.90;;
57291;SDS011;43144;50.972;18.220;2022-09-03T07:31:15;6.80;;;3.80;;
57291;SDS011;43144;50.972;18.220;2022-09-03T07:33:45;6.80;;;4.30;;
57291;SDS011;43144;50.972;18.220;2022-09-03T07:36:14;7.60;;;4.20;;
57291;SDS011;43144;50.972;18.220;2022-09-03T07:38:43;5.60;;;4.20;;
57291;SDS011;43144;50.972;18.220;2022-09-03T07:41:12;6.80;;;4.30;;
57291;SDS011;43144;50.972;18.220;2022-09-03T07:43:42;5.40;;;3.90;;
57291;SDS011;43144;50.972;18.220;2022-09-03T07:46:12;5.50;;;4.10;;
57291;SDS011;43144;50.972;18.220;2022-09-03T07:48:41;5.10;;;4.00;;
57291;SDS011;43144;50.972;18.220;2022-09-03T07:51:12;6.40;;;4.00;;
57291;SDS011;43144;50.972;18.220;2022-09-03T07:53:40;6.50;;;5.10;;
57291;SDS011;43144;50.972;18.220;2022-09-03T07:56:09;7.80;;;4.40;;
57291;SDS011;43144;50.972;18.220;2022-09-03T07:58:37;7.10;;;4.30;;
57291;SDS011;43144;50.972;18.220;2022-09-03T08:01:07;6.80;;;4.50;;
57291;SDS011;43144;50.972;18.220;2022-09-03T08:03:37;6.20;;;4.50;;
57291;SDS011;43144;50.972;18.220;2022-09-03T08:06:08;8.30;;;4.20;;
57291;SDS011;43144;50.972;18.220;2022-09-03T08:08:37;6.40;;;4.30;;
57291;SDS011;43144;50.972;18.220;2022-09-03T08:11:07;7.40;;;4.40;;
57291;SDS011;43144;50.972;18.220;2022-09-03T08:16:05;7.50;;;4.40;;
57291;SDS011;43144;50.972;18.220;2022-09-03T08:18:34;6.30;;;4.10;;
57291;SDS011;43144;50.972;18.220;2022-09-03T08:21:04;5.50;;;4.60;;
57291;SDS011;43144;50.972;18.220;2022-09-03T08:23:35;4.60;;;4.00;;
57291;SDS011;43144;50.972;18.220;2022-09-03T08:26:04;5.10;;;4.20;;
57291;SDS011;43144;50.972;18.220;2022-09-03T08:28:33;6.80;;;4.30;;
57291;SDS011;43144;50.972;18.220;2022-09-03T08:31:05;6.10;;;4.20;;
57291;SDS011;43144;50.972;18.220;2022-09-03T08:33:34;5.90;;;4.00;;
57291;SDS011;43144;50.972;18.220;2022-09-03T08:36:05;5.10;;;4.10;;
57291;SDS011;43144;50.972;18.220;2022-09-03T08:38:34;7.20;;;4.30;;
57291;SDS011;43144;50.972;18.220;2022-09-03T08:41:04;6.60;;;4.30;;
57291;SDS011;43144;50.972;18.220;2022-09-03T08:43:33;4.70;;;4.10;;
57291;SDS011;43144;50.972;18.220;2022-09-03T08:46:08;7.00;;;3.90;;
57291;SDS011;43144;50.972;18.220;2022-09-03T08:48:37;5.90;;;4.20;;
57291;SDS011;43144;50.972;18.220;2022-09-03T08:51:05;6.70;;;3.70;;
57291;SDS011;43144;50.972;18.220;2022-09-03T08:53:38;6.50;;;3.90;;
57291;SDS011;43144;50.972;18.220;2022-09-03T08:56:11;6.80;;;3.90;;
57291;SDS011;43144;50.972;18.220;2022-09-03T08:58:52;7.30;;;4.40;;
57291;SDS011;43144;50.972;18.220;2022-09-03T09:01:29;7.50;;;3.90;;
57291;SDS011;43144;50.972;18.220;2022-09-03T09:04:06;4.50;;;3.40;;
57291;SDS011;43144;50.972;18.220;2022-09-03T09:06:46;4.50;;;3.50;;
57291;SDS011;43144;50.972;18.220;2022-09-03T09:09:22;5.10;;;3.30;;
57291;SDS011;43144;50.972;18.220;2022-09-03T09:11:57;7.40;;;3.90;;
57291;SDS011;43144;50.972;18.220;2022-09-03T09:14:32;7.40;;;3.50;;
57291;SDS011;43144;50.972;18.220;2022-09-03T09:17:03;5.60;;;3.20;;
57291;SDS011;43144;50.972;18.220;2022-09-03T09:19:44;10.00;;;3.50;;
57291;SDS011;43144;50.972;18.220;2022-09-03T09:22:20;6.00;;;3.50;;
57291;SDS011;43144;50.972;18.220;2022-09-03T09:24:52;11.00;;;4.00;;
57291;SDS011;43144;50.972;18.220;2022-09-03T09:27:21;5.70;;;3.70;;
57291;SDS011;43144;50.972;18.220;2022-09-03T09:29:50;5.40;;;3.50;;
57291;SDS011;43144;50.972;18.220;2022-09-03T09:32:19;6.50;;;3.60;;
57291;SDS011;43144;50.972;18.220;2022-09-03T09:34:48;6.60;;;3.40;;
57291;SDS011;43144;50.972;18.220;2022-09-03T09:37:16;7.20;;;3.20;;
57291;SDS011;43144;50.972;18.220;2022-09-03T09:39:54;7.20;;;3.40;;
57291;SDS011;43144;50.972;18.220;2022-09-03T09:42:24;5.60;;;3.60;;
57291;SDS011;43144;50.972;18.220;2022-09-03T09:44:52;6.50;;;3.20;;
57291;SDS011;43144;50.972;18.220;2022-09-03T09:47:23;6.40;;;3.60;;
57291;SDS011;43144;50.972;18.220;2022-09-03T09:49:53;6.20;;;3.60;;
57291;SDS011;43144;50.972;18.220;2022-09-03T09:52:23;7.90;;;3.50;;
57291;SDS011;43144;50.972;18.220;2022-09-03T09:54:52;5.70;;;3.20;;
57291;SDS011;43144;50.972;18.220;2022-09-03T09:57:31;5.60;;;3.40;;
57291;SDS011;43144;50.972;18.220;2022-09-03T10:00:04;13.40;;;3.40;;
57291;SDS011;43144;50.972;18.220;2022-09-03T10:02:34;6.80;;;3.10;;
57291;SDS011;43144;50.972;18.220;2022-09-03T10:05:11;5.80;;;2.90;;
57291;SDS011;43144;50.972;18.220;2022-09-03T10:07:41;5.00;;;3.20;;
57291;SDS011;43144;50.972;18.220;2022-09-03T10:10:19;5.00;;;3.20;;
57291;SDS011;43144;50.972;18.220;2022-09-03T10:12:49;11.30;;;3.50;;
57291;SDS011;43144;50.972;18.220;2022-09-03T10:15:22;5.00;;;3.20;;
57291;SDS011;43144;50.972;18.220;2022-09-03T10:17:56;6.50;;;3.50;;
57291;SDS011;43144;50.972;18.220;2022-09-03T10:20:30;11.50;;;3.70;;
57291;SDS011;43144;50.972;18.220;2022-09-03T10:23:01;6.60;;;3.50;;
57291;SDS011;43144;50.972;18.220;2022-09-03T10:25:37;7.30;;;3.60;;
57291;SDS011;43144;50.972;18.220;2022-09-03T10:28:08;10.80;;;3.60;;
57291;SDS011;43144;50.972;18.220;2022-09-03T10:30:40;8.40;;;3.60;;
57291;SDS011;43144;50.972;18.220;2022-09-03T10:33:23;4.90;;;3.70;;
57291;SDS011;43144;50.972;18.220;2022-09-03T10:35:58;5.20;;;3.60;;
57291;SDS011;43144;50.972;18.220;2022-09-03T10:38:35;10.80;;;3.70;;
57291;SDS011;43144;50.972;18.220;2022-09-03T10:41:07;6.60;;;4.00;;
57291;SDS011;43144;50.972;18.220;2022-09-03T10:43:47;4.40;;;3.50;;
57291;SDS011;43144;50.972;18.220;2022-09-03T10:46:26;4.60;;;3.40;;
57291;SDS011;43144;50.972;18.220;2022-09-03T10:49:02;6.30;;;3.80;;
57291;SDS011;43144;50.972;18.220;2022-09-03T10:51:40;5.20;;;3.30;;
57291;SDS011;43144;50.972;18.220;2022-09-03T10:54:14;5.30;;;3.80;;
57291;SDS011;43144;50.972;18.220;2022-09-03T10:56:52;5.60;;;3.60;;
57291;SDS011;43144;50.972;18.220;2022-09-03T10:59:27;6.50;;;3.50;;
57291;SDS011;43144;50.972;18.220;2022-09-03T11:02:04;7.00;;;3.50;;
57291;SDS011;43144;50.972;18.220;2022-09-03T11:04:42;7.10;;;3.50;;
57291;SDS011;43144;50.972;18.220;2022-09-03T11:07:16;6.40;;;3.30;;
57291;SDS011;43144;50.972;18.220;2022-09-03T11:09:50;7.30;;;3.60;;
57291;SDS011;43144;50.972;18.220;2022-09-03T11:12:22;6.00;;;3.60;;
57291;SDS011;43144;50.972;18.220;2022-09-03T11:14:55;5.20;;;3.50;;
57291;SDS011;43144;50.972;18.220;2022-09-03T11:17:28;6.00;;;3.20;;
57291;SDS011;43144;50.972;18.220;2022-09-03T11:19:59;6.00;;;2.70;;
57291;SDS011;43144;50.972;18.220;2022-09-03T11:22:35;6.30;;;2.70;;
57291;SDS011;43144;50.972;18.220;2022-09-03T11:25:05;4.90;;;2.80;;
57291;SDS011;43144;50.972;18.220;2022-09-03T11:27:43;5.80;;;3.00;;
57291;SDS011;43144;50.972;18.220;2022-09-03T11:30:23;4.20;;;2.80;;
57291;SDS011;43144;50.972;18.220;2022-09-03T11:32:53;6.10;;;3.30;;
57291;SDS011;43144;50.972;18.220;2022-09-03T11:35:26;4.50;;;3.10;;
57291;SDS011;43144;50.972;18.220;2022-09-03T11:38:04;4.90;;;3.20;;
57291;SDS011;43144;50.972;18.220;2022-09-03T11:40:55;3.90;;;3.30;;
57291;SDS011;43144;50.972;18.220;2022-09-03T11:43:26;6.10;;;3.50;;
57291;SDS011;43144;50.972;18.220;2022-09-03T11:46:04;5.30;;;3.70;;
57291;SDS011;43144;50.972;18.220;2022-09-03T11:48:37;6.20;;;3.60;;
57291;SDS011;43144;50.972;18.220;2022-09-03T11:51:17;5.80;;;3.60;;
57291;SDS011;43144;50.972;18.220;2022-09-03T11:53:55;7.10;;;3.00;;
57291;SDS011;43144;50.972;18.220;2022-09-03T11:56:25;6.80;;;3.00;;
57291;SDS011;43144;50.972;18.220;2022-09-03T11:59:03;6.10;;;3.50;;
57291;SDS011;43144;50.972;18.220;2022-09-03T12:01:41;4.30;;;3.50;;
57291;SDS011;43144;50.972;18.220;2022-09-03T12:04:13;4.40;;;2.90;;
57291;SDS011;43144;50.972;18.220;2022-09-03T12:06:46;5.20;;;2.90;;
57291;SDS011;43144;50.972;18.220;2022-09-03T12:09:28;3.30;;;3.00;;
57291;SDS011;43144;50.972;18.220;2022-09-03T12:12:10;5.30;;;3.40;;
57291;SDS011;43144;50.972;18.220;2022-09-03T12:14:45;4.20;;;3.20;;
57291;SDS011;43144;50.972;18.220;2022-09-03T12:17:21;5.60;;;3.40;;
57291;SDS011;43144;50.972;18.220;2022-09-03T12:19:54;6.10;;;3.80;;
57291;SDS011;43144;50.972;18.220;2022-09-03T12:22:24;5.10;;;3.50;;
57291;SDS011;43144;50.972;18.220;2022-09-03T12:24:53;4.10;;;3.50;;
57291;SDS011;43144;50.972;18.220;2022-09-03T12:27:22;4.80;;;3.00;;
57291;SDS011;43144;50.972;18.220;2022-09-03T12:29:54;4.70;;;3.60;;
57291;SDS011;43144;50.972;18.220;2022-09-03T12:32:25;4.30;;;3.70;;
57291;SDS011;43144;50.972;18.220;2022-09-03T12:34:54;5.00;;;4.00;;
57291;SDS011;43144;50.972;18.220;2022-09-03T12:37:24;8.20;;;4.50;;
57291;SDS011;43144;50.972;18.220;2022-09-03T12:39:53;4.80;;;3.50;;
57291;SDS011;43144;50.972;18.220;2022-09-03T12:42:24;6.00;;;3.40;;
57291;SDS011;43144;50.972;18.220;2022-09-03T12:44:53;4.50;;;3.40;;
57291;SDS011;43144;50.972;18.220;2022-09-03T12:47:22;3.60;;;3.20;;
57291;SDS011;43144;50.972;18.220;2022-09-03T12:49:51;4.20;;;3.20;;
57291;SDS011;43144;50.972;18.220;2022-09-03T12:52:25;4.10;;;3.30;;
57291;SDS011;43144;50.972;18.220;2022-09-03T12:57:25;5.50;;;3.30;;
57291;SDS011;43144;50.972;18.220;2022-09-03T12:59:57;5.40;;;3.10;;
57291;SDS011;43144;50.972;18.220;2022-09-03T13:02:26;5.40;;;3.20;;
57291;SDS011;43144;50.972;18.220;2022-09-03T13:04:56;4.30;;;3.40;;
57291;SDS011;43144;50.972;18.220;2022-09-03T13:07:26;6.00;;;3.40;;
57291;SDS011;43144;50.972;18.220;2022-09-03T13:09:59;4.90;;;3.30;;
57291;SDS011;43144;50.972;18.220;2022-09-03T13:12:31;4.60;;;3.30;;
57291;SDS011;43144;50.972;18.220;2022-09-03T13:15:05;3.50;;;3.20;;
57291;SDS011;43144;50.972;18.220;2022-09-03T13:17:40;4.70;;;3.00;;
57291;SDS011;43144;50.972;18.220;2022-09-03T13:20:22;5.20;;;3.10;;
57291;SDS011;43144;50.972;18.220;2022-09-03T13:22:59;4.80;;;3.10;;
57291;SDS011;43144;50.972;18.220;2022-09-03T13:25:36;4.20;;;3.70;;
57291;SDS011;43144;50.972;18.220;2022-09-03T13:28:16;4.30;;;3.40;;
57291;SDS011;43144;50.972;18.220;2022-09-03T13:30:52;6.90;;;3.40;;
57291;SDS011;43144;50.972;18.220;2022-09-03T13:33:24;3.90;;;3.40;;
57291;SDS011;43144;50.972;18.220;2022-09-03T13:35:59;6.20;;;3.40;;
57291;SDS011;43144;50.972;18.220;2022-09-03T13:38:30;5.00;;;3.60;;
57291;SDS011;43144;50.972;18.220;2022-09-03T13:41:02;5.20;;;3.30;;
57291;SDS011;43144;50.972;18.220;2022-09-03T13:43:36;6.00;;;4.00;;
57291;SDS011;43144;50.972;18.220;2022-09-03T13:46:06;4.60;;;4.00;;
57291;SDS011;43144;50.972;18.220;2022-09-03T13:48:39;4.40;;;3.90;;
57291;SDS011;43144;50.972;18.220;2022-09-03T13:51:10;4.90;;;4.00;;
57291;SDS011;43144;50.972;18.220;2022-09-03T13:53:43;4.20;;;3.30;;
57291;SDS011;43144;50.972;18.220;2022-09-03T13:56:20;4.80;;;3.50;;
57291;SDS011;43144;50.972;18.220;2022-09-03T13:58:53;5.10;;;3.60;;
57291;SDS011;43144;50.972;18.220;2022-09-03T14:01:31;5.50;;;3.60;;
57291;SDS011;43144;50.972;18.220;2022-09-03T14:04:12;4.60;;;3.60;;
57291;SDS011;43144;50.972;18.220;2022-09-03T14:06:45;6.50;;;4.00;;
57291;SDS011;43144;50.972;18.220;2022-09-03T14:09:19;5.90;;;3.90;;
57291;SDS011;43144;50.972;18.220;2022-09-03T14:11:53;4.70;;;3.70;;
57291;SDS011;43144;50.972;18.220;2022-09-03T14:14:33;7.00;;;4.10;;
57291;SDS011;43144;50.972;18.220;2022-09-03T14:17:09;7.40;;;3.90;;
57291;SDS011;43144;50.972;18.220;2022-09-03T14:19:40;5.10;;;3.70;;
57291;SDS011;43144;50.972;18.220;2022-09-03T14:22:14;4.40;;;3.90;;
57291;SDS011;43144;50.972;18.220;2022-09-03T14:24:46;5.20;;;3.60;;
57291;SDS011;43144;50.972;18.220;2022-09-03T14:27:26;4.10;;;3.50;;
57291;SDS011;43144;50.972;18.220;2022-09-03T14:29:58;6.50;;;3.70;;
57291;SDS011;43144;50.972;18.220;2022-09-03T14:32:30;6.20;;;3.60;;
57291;SDS011;43144;50.972;18.220;2022-09-03T14:37:54;6.90;;;4.20;;
57291;SDS011;43144;50.972;18.220;2022-09-03T14:40:38;6.70;;;4.00;;
57291;SDS011;43144;50.972;18.220;2022-09-03T14:43:11;4.40;;;3.90;;
57291;SDS011;43144;50.972;18.220;2022-09-03T14:45:51;5.70;;;3.80;;
57291;SDS011;43144;50.972;18.220;2022-09-03T14:48:32;5.00;;;3.60;;
57291;SDS011;43144;50.972;18.220;2022-09-03T14:51:12;6.30;;;3.80;;
57291;SDS011;43144;50.972;18.220;2022-09-03T14:53:52;6.50;;;3.60;;
57291;SDS011;43144;50.972;18.220;2022-09-03T14:56:39;4.90;;;3.80;;
57291;SDS011;43144;50.972;18.220;2022-09-03T14:59:19;4.50;;;3.70;;
57291;SDS011;43144;50.972;18.220;2022-09-03T15:02:05;3.70;;;3.30;;
57291;SDS011;43144;50.972;18.220;2022-09-03T15:04:52;4.20;;;3.50;;
57291;SDS011;43144;50.972;18.220;2022-09-03T15:07:28;4.90;;;3.30;;
57291;SDS011;43144;50.972;18.220;2022-09-03T15:10:02;4.30;;;3.50;;
57291;SDS011;43144;50.972;18.220;2022-09-03T15:12:39;5.40;;;3.70;;